Time;durP1;ratioP1;P1;durP2;ratioP2;P2;SDS_P1;SDS_P2;PMS_P1;PMS_P2;Temp;Humidity;BMP_temperature;BMP_pressure;BME280_temperature;BME280_humidity;BME280_pressure;Samples;Min_cycle;Max_cycle;Signal;HPM_P1;HPM_P2
2023/06/07 00:00:26;;;;;;;1.33;1.23;;;;;;;16.63;66.10;98677.66;4104741;28;20210;-49
2023/06/07 00:02:30;;;;;;;2.30;2.10;;;;;;;16.60;66.08;98686.53;4098187;28;20234;-49
2023/06/07 00:04:45;;;;;;;2.60;2.40;;;;;;;16.64;66.35;98682.06;4103271;28;20799;-49
2023/06/07 00:06:47;;;;;;;13.10;2.13;;;;;;;16.60;66.58;98681.00;4102495;28;20261;-48
2023/06/07 00:08:49;;;;;;;3.00;1.80;;;;;;;16.58;66.41;98676.88;4105355;28;20207;-50
2023/06/07 00:10:51;;;;;;;8.77;1.90;;;;;;;16.51;66.66;98677.19;4105002;28;20210;-48
2023/06/07 00:12:53;;;;;;;2.28;2.10;;;;;;;16.41;67.20;98681.91;4104475;28;20211;-52
2023/06/07 00:14:54;;;;;;;2.10;1.90;;;;;;;16.33;67.61;98672.28;4102793;28;20222;-50
2023/06/07 00:16:56;;;;;;;5.15;2.15;;;;;;;16.34;67.76;98676.69;4104624;28;20299;-51
2023/06/07 00:18:58;;;;;;;2.95;2.75;;;;;;;16.30;67.85;98674.78;4102058;28;20203;-48
2023/06/07 00:21:00;;;;;;;3.53;1.70;;;;;;;16.24;68.39;98687.75;4101828;28;20211;-52
2023/06/07 00:23:04;;;;;;;3.33;1.73;;;;;;;16.21;68.50;98670.94;4117332;28;20234;-52
2023/06/07 00:25:07;;;;;;;2.60;2.05;;;;;;;16.15;68.65;98683.13;4105319;28;20665;-48
2023/06/07 00:27:09;;;;;;;9.77;1.83;;;;;;;16.06;69.21;98684.81;4105084;28;20206;-49
2023/06/07 00:29:11;;;;;;;4.03;2.35;;;;;;;15.99;69.22;98685.13;4105867;28;20224;-49
2023/06/07 00:31:13;;;;;;;3.35;3.03;;;;;;;15.95;69.43;98683.19;4105522;28;20310;-48
2023/06/07 00:33:15;;;;;;;2.47;2.17;;;;;;;15.93;69.49;98686.22;4085717;28;20231;-49
2023/06/07 00:35:16;;;;;;;4.13;1.77;;;;;;;15.85;69.58;98684.06;4099475;28;20977;-52
2023/06/07 00:37:18;;;;;;;2.80;1.77;;;;;;;15.83;69.65;98686.25;4105631;28;20253;-49
2023/06/07 00:39:20;;;;;;;3.25;1.98;;;;;;;15.84;69.48;98685.13;4103189;28;20262;-49
2023/06/07 00:41:21;;;;;;;3.67;2.17;;;;;;;15.88;69.35;98682.63;4106159;28;20922;-50
2023/06/07 00:43:24;;;;;;;1.70;1.55;;;;;;;15.87;69.40;98681.00;4102319;28;20241;-53
2023/06/07 00:45:26;;;;;;;3.38;2.00;;;;;;;15.79;69.41;98689.84;4100735;28;20688;-51
2023/06/07 00:47:28;;;;;;;3.17;1.95;;;;;;;15.74;69.30;98687.94;4104156;28;20271;-48
2023/06/07 00:49:33;;;;;;;2.40;2.20;;;;;;;15.76;68.96;98679.38;4083322;28;20752;-51
2023/06/07 00:51:34;;;;;;;4.05;1.98;;;;;;;15.76;68.84;98685.69;4107327;28;20202;-51
2023/06/07 00:53:37;;;;;;;2.58;1.98;;;;;;;15.71;68.82;98682.94;4104237;28;20229;-53
2023/06/07 00:55:39;;;;;;;2.58;1.83;;;;;;;15.70;68.85;98686.81;4101738;28;20211;-50
2023/06/07 00:57:41;;;;;;;2.58;2.38;;;;;;;15.67;68.86;98687.38;4104611;28;20238;-51
2023/06/07 00:59:43;;;;;;;2.45;2.22;;;;;;;15.66;68.76;98685.75;4096901;28;20207;-50
2023/06/07 01:01:47;;;;;;;2.05;1.85;;;;;;;15.66;68.98;98679.38;4099031;28;20827;-48
2023/06/07 01:03:49;;;;;;;1.95;1.70;;;;;;;15.62;69.63;98681.88;4098048;28;20851;-49
2023/06/07 01:05:51;;;;;;;2.20;2.00;;;;;;;15.54;69.69;98671.41;4107952;28;21063;-48
2023/06/07 01:07:54;;;;;;;2.35;1.70;;;;;;;15.56;69.82;98671.94;4109127;28;20207;-51
2023/06/07 01:09:56;;;;;;;2.28;1.95;;;;;;;15.43;69.73;98678.03;4107283;28;20223;-52
2023/06/07 01:11:58;;;;;;;1.88;1.75;;;;;;;15.41;69.93;98680.25;4107642;28;20233;-51
2023/06/07 01:14:00;;;;;;;1.95;1.70;;;;;;;15.41;70.36;98677.50;4091388;28;20232;-51
2023/06/07 01:16:02;;;;;;;2.50;2.20;;;;;;;15.40;70.65;98677.75;4106757;28;20216;-47
2023/06/07 01:18:04;;;;;;;5.25;2.00;;;;;;;15.27;71.39;98676.38;4092400;28;20274;-50
2023/06/07 01:20:11;;;;;;;3.50;1.73;;;;;;;15.23;71.36;98678.00;4102076;28;20306;-48
2023/06/07 01:22:14;;;;;;;3.88;1.77;;;;;;;15.16;71.91;98674.69;4089205;28;20623;-48
2023/06/07 01:24:18;;;;;;;3.33;2.35;;;;;;;15.15;72.06;98681.31;4087250;28;20464;-50
2023/06/07 01:26:20;;;;;;;3.15;2.42;;;;;;;15.14;72.05;98671.41;4102964;28;20313;-49
2023/06/07 01:28:22;;;;;;;1.90;1.70;;;;;;;15.18;71.96;98672.50;4087175;28;20222;-48
2023/06/07 01:30:24;;;;;;;2.50;2.30;;;;;;;15.16;71.92;98673.88;4086031;28;20216;-49
2023/06/07 01:32:26;;;;;;;2.42;2.08;;;;;;;15.10;72.15;98675.78;4101669;28;20254;-51
2023/06/07 01:34:29;;;;;;;3.35;2.35;;;;;;;15.12;72.12;98672.78;4085695;28;21179;-51
2023/06/07 01:36:31;;;;;;;2.88;2.45;;;;;;;15.10;72.25;98673.03;4086608;28;20209;-49
2023/06/07 01:38:33;;;;;;;2.30;2.05;;;;;;;15.02;72.13;98670.84;4102783;28;20318;-50
2023/06/07 01:40:36;;;;;;;1.90;1.70;;;;;;;14.98;72.23;98672.50;4104904;28;20214;-52
2023/06/07 01:42:38;;;;;;;2.05;1.85;;;;;;;14.96;72.07;98669.19;4101306;28;20234;-50
2023/06/07 01:44:40;;;;;;;3.40;2.17;;;;;;;14.85;72.08;98664.78;4102354;28;20273;-49
2023/06/07 01:46:42;;;;;;;2.67;1.90;;;;;;;14.85;71.64;98664.78;4089124;28;20223;-48
2023/06/07 01:48:44;;;;;;;2.30;2.10;;;;;;;14.83;71.98;98664.19;4091851;28;20262;-48
2023/06/07 01:50:47;;;;;;;3.05;2.30;;;;;;;14.82;72.13;98661.75;4102626;28;21092;-49
2023/06/07 01:52:49;;;;;;;2.80;2.58;;;;;;;14.74;72.55;98665.00;4106449;28;20207;-51
2023/06/07 01:54:51;;;;;;;3.97;2.63;;;;;;;14.72;72.62;98662.56;4107106;28;20206;-49
2023/06/07 01:57:11;;;;;;;1.80;1.70;;;;;;;14.66;72.68;98658.13;4103306;28;20250;-49
2023/06/07 01:59:25;;;;;;;2.10;1.88;;;;;;;14.69;72.81;98663.06;4102518;28;20253;-49
2023/06/07 02:01:35;;;;;;;3.50;1.90;;;;;;;14.65;72.78;98659.22;4107153;28;20215;-49
2023/06/07 02:03:43;;;;;;;3.00;2.17;;;;;;;14.64;73.10;98660.31;4086531;28;20242;-49
2023/06/07 02:05:48;;;;;;;2.38;2.17;;;;;;;14.69;73.13;98662.28;4090451;28;20294;-53
2023/06/07 02:07:53;;;;;;;2.40;2.20;;;;;;;14.70;73.01;98659.22;4107377;28;20263;-51
2023/06/07 02:09:56;;;;;;;2.47;2.22;;;;;;;14.72;73.24;98659.78;4105624;28;20217;-49
2023/06/07 02:11:59;;;;;;;3.10;2.05;;;;;;;14.75;73.42;98656.47;4106070;28;20207;-51
2023/06/07 02:14:01;;;;;;;2.35;1.90;;;;;;;14.74;73.88;98663.09;4107906;28;20276;-49
2023/06/07 02:16:06;;;;;;;2.33;1.80;;;;;;;14.72;74.10;98662.56;4088038;28;20207;-49
2023/06/07 02:18:08;;;;;;;2.38;2.17;;;;;;;14.69;74.34;98668.59;4105516;28;20225;-50
2023/06/07 02:20:10;;;;;;;2.58;2.33;;;;;;;14.59;74.78;98663.06;4107346;28;21171;-52
2023/06/07 02:22:14;;;;;;;2.33;1.70;;;;;;;14.56;74.81;98658.09;4107832;28;20265;-51
2023/06/07 02:24:17;;;;;;;3.83;2.63;;;;;;;14.53;75.61;98657.81;4117745;28;20234;-51
2023/06/07 02:26:20;;;;;;;2.78;2.30;;;;;;;14.46;75.65;98657.25;4119232;28;20202;-50
2023/06/07 02:28:22;;;;;;;2.53;1.80;;;;;;;14.39;75.99;98657.50;4106438;28;20740;-52
2023/06/07 02:30:24;;;;;;;4.65;2.88;;;;;;;14.33;76.17;98663.25;4102681;28;20818;-50
2023/06/07 02:32:26;;;;;;;3.10;2.90;;;;;;;14.28;76.57;98669.59;4090841;28;20246;-49
2023/06/07 02:34:29;;;;;;;3.75;2.22;;;;;;;14.31;76.48;98659.97;4100195;28;20257;-51
2023/06/07 02:36:33;;;;;;;2.72;2.53;;;;;;;14.23;76.07;98654.97;4104919;28;20215;-49
2023/06/07 02:38:35;;;;;;;3.28;2.67;;;;;;;14.27;76.38;98654.16;4107112;28;20299;-51
2023/06/07 02:40:37;;;;;;;2.60;2.40;;;;;;;14.27;75.93;98651.41;4106670;28;20254;-51
2023/06/07 02:42:46;;;;;;;2.88;2.55;;;;;;;14.24;75.80;98654.69;4105546;28;20203;-51
2023/06/07 02:44:47;;;;;;;3.08;1.98;;;;;;;14.31;75.80;98657.22;4102745;28;20230;-51
2023/06/07 02:46:49;;;;;;;2.88;2.60;;;;;;;14.26;75.94;98657.19;4100922;28;20266;-49
2023/06/07 02:48:51;;;;;;;2.58;2.38;;;;;;;14.20;75.89;98656.34;4086448;28;20259;-50
2023/06/07 02:50:52;;;;;;;2.60;2.20;;;;;;;14.23;76.01;98653.03;4103110;28;20250;-49
2023/06/07 02:52:54;;;;;;;2.70;2.50;;;;;;;14.18;75.65;98653.00;4089331;28;20258;-50
2023/06/07 02:54:56;;;;;;;2.40;2.20;;;;;;;14.15;75.60;98652.69;4106308;28;20297;-53
2023/06/07 02:56:57;;;;;;;2.53;2.28;;;;;;;14.12;75.83;98645.84;4101643;28;20211;-51
2023/06/07 02:58:59;;;;;;;3.33;2.60;;;;;;;14.12;75.88;98651.34;4105540;28;20210;-50
2023/06/07 03:01:02;;;;;;;2.97;2.10;;;;;;;14.16;76.12;98652.44;4105016;28;20210;-50
2023/06/07 03:03:05;;;;;;;2.35;2.08;;;;;;;14.14;75.94;98657.38;4104139;28;20231;-50
2023/06/07 03:05:07;;;;;;;2.40;2.17;;;;;;;14.13;76.25;98657.66;4093309;28;20222;-52
2023/06/07 03:07:09;;;;;;;2.20;1.90;;;;;;;14.10;76.54;98642.50;4108159;28;20225;-49
2023/06/07 03:09:13;;;;;;;2.67;2.47;;;;;;;14.07;76.89;98647.72;4095755;28;20251;-51
2023/06/07 03:11:15;;;;;;;3.03;2.83;;;;;;;14.10;77.04;98659.00;4108805;28;20235;-49
2023/06/07 03:13:17;;;;;;;2.83;2.47;;;;;;;14.01;77.56;98660.63;4109330;28;20226;-50
2023/06/07 03:15:19;;;;;;;3.75;2.38;;;;;;;13.94;77.69;98664.72;4106807;28;20557;-51
2023/06/07 03:17:21;;;;;;;3.95;2.50;;;;;;;13.93;78.10;98669.41;4104029;28;20222;-53
2023/06/07 03:19:23;;;;;;;2.60;2.40;;;;;;;13.95;78.59;98672.72;4106137;28;20600;-53
2023/06/07 03:21:25;;;;;;;2.97;2.35;;;;;;;13.86;78.10;98668.81;4100359;28;20827;-53
2023/06/07 03:23:28;;;;;;;3.33;2.20;;;;;;;13.79;77.95;98670.16;4103867;28;20269;-49
2023/06/07 03:25:30;;;;;;;2.20;2.00;;;;;;;13.75;78.24;98674.50;4106331;28;20581;-50
2023/06/07 03:27:32;;;;;;;3.83;1.98;;;;;;;13.67;78.27;98673.13;4088695;28;20294;-51
2023/06/07 03:29:34;;;;;;;4.18;2.33;;;;;;;13.62;78.12;98673.06;4102593;28;20686;-50
2023/06/07 03:31:37;;;;;;;3.35;3.08;;;;;;;13.64;78.49;98665.38;4102822;28;20613;-51
2023/06/07 03:33:38;;;;;;;2.60;2.40;;;;;;;13.63;78.82;98668.41;4099353;28;20231;-50
2023/06/07 03:35:41;;;;;;;3.17;2.95;;;;;;;13.65;78.86;98675.31;4101460;28;20262;-50
2023/06/07 03:37:43;;;;;;;3.33;2.30;;;;;;;13.63;79.10;98663.72;4101887;28;20212;-49
2023/06/07 03:39:44;;;;;;;2.90;2.35;;;;;;;13.64;79.09;98665.38;4102813;28;20215;-51
2023/06/07 03:41:46;;;;;;;2.38;2.17;;;;;;;13.65;79.53;98671.72;4118533;28;20425;-49
2023/06/07 03:43:48;;;;;;;2.40;2.03;;;;;;;13.66;79.55;98674.22;4103696;28;20230;-49
2023/06/07 03:45:50;;;;;;;4.05;2.78;;;;;;;13.50;80.31;98675.19;4116224;28;20262;-51
2023/06/07 03:47:53;;;;;;;2.63;2.42;;;;;;;13.37;80.89;98675.66;4105268;28;20210;-49
2023/06/07 03:49:55;;;;;;;2.60;2.25;;;;;;;13.39;80.95;98678.97;4119302;28;20210;-49
2023/06/07 03:51:57;;;;;;;3.92;2.85;;;;;;;13.41;80.75;98676.78;4104162;28;20207;-50
2023/06/07 03:53:59;;;;;;;2.30;2.10;;;;;;;13.48;80.40;98682.88;4106175;28;20266;-51
2023/06/07 03:56:01;;;;;;;2.90;2.58;;;;;;;13.46;80.47;98674.09;4103735;28;20207;-52
2023/06/07 03:58:02;;;;;;;3.38;3.05;;;;;;;13.44;80.84;98676.25;4117449;28;21158;-53
2023/06/07 04:00:06;;;;;;;4.68;2.45;;;;;;;13.46;81.31;98676.00;4119089;28;20206;-50
2023/06/07 04:02:08;;;;;;;5.60;2.75;;;;;;;13.45;81.11;98677.94;4102387;28;20389;-49
2023/06/07 04:04:10;;;;;;;4.32;2.80;;;;;;;13.43;81.10;98682.84;4102636;28;20566;-51
2023/06/07 04:06:12;;;;;;;2.80;2.60;;;;;;;13.46;81.32;98674.09;4107676;28;20215;-49
2023/06/07 04:08:13;;;;;;;4.43;4.03;;;;;;;13.44;80.71;98672.69;4104724;28;20215;-51
2023/06/07 04:10:15;;;;;;;4.72;2.65;;;;;;;13.53;80.86;98677.44;4103485;28;20215;-48
2023/06/07 04:12:17;;;;;;;2.85;2.65;;;;;;;13.61;81.07;98670.59;4105275;28;20211;-50
2023/06/07 04:14:19;;;;;;;2.30;2.20;;;;;;;13.60;81.00;98675.28;4104574;28;20231;-50
2023/06/07 04:16:20;;;;;;;4.10;2.63;;;;;;;13.66;80.65;98679.72;4107056;28;20314;-49
2023/06/07 04:18:22;;;;;;;5.18;3.17;;;;;;;13.65;80.57;98672.56;4105577;28;20314;-51
2023/06/07 04:20:24;;;;;;;4.10;2.72;;;;;;;13.57;80.87;98675.78;4107130;28;20703;-50
2023/06/07 04:22:26;;;;;;;4.85;3.08;;;;;;;13.54;80.53;98673.59;4107602;28;20276;-51
2023/06/07 04:24:28;;;;;;;2.67;2.45;;;;;;;13.53;80.52;98669.19;4104121;28;20243;-48
2023/06/07 04:26:31;;;;;;;3.85;2.75;;;;;;;13.55;80.59;98671.63;4089455;28;20207;-50
2023/06/07 04:28:32;;;;;;;3.67;2.53;;;;;;;13.56;81.03;98674.13;4105616;28;20210;-53
2023/06/07 04:30:34;;;;;;;7.25;3.25;;;;;;;13.57;80.91;98670.28;4103601;28;20219;-49
2023/06/07 04:32:37;;;;;;;9.88;3.00;;;;;;;13.62;80.67;98669.47;4105865;28;20219;-51
2023/06/07 04:34:41;;;;;;;25.98;5.25;;;;;;;13.73;81.03;98677.56;4103722;28;20226;-50
2023/06/07 04:36:49;;;;;;;45.03;5.20;;;;;;;13.70;81.45;98674.50;4088492;28;20211;-50
2023/06/07 04:38:55;;;;;;;21.42;4.63;;;;;;;13.70;81.34;98675.31;4103829;28;20717;-51
2023/06/07 04:41:00;;;;;;;25.27;5.05;;;;;;;13.75;81.70;98669.84;4105415;28;20635;-51
2023/06/07 04:43:05;;;;;;;32.78;6.30;;;;;;;13.63;82.20;98674.72;4108349;28;20570;-48
2023/06/07 04:45:07;;;;;;;19.42;4.30;;;;;;;13.71;82.28;98679.72;4105005;28;20671;-54
2023/06/07 04:47:09;;;;;;;26.38;4.65;;;;;;;13.60;83.20;98677.19;4103161;28;20281;-50
2023/06/07 04:49:17;;;;;;;29.77;5.40;;;;;;;13.74;82.08;98679.22;4088456;28;20253;-52
2023/06/07 04:51:20;;;;;;;17.70;4.18;;;;;;;13.82;81.67;98684.19;4106020;28;20983;-49
2023/06/07 04:53:22;;;;;;;20.65;5.05;;;;;;;13.93;81.35;98685.06;4104930;28;20234;-53
2023/06/07 04:55:24;;;;;;;9.32;4.18;;;;;;;14.00;81.00;98693.91;4099918;28;20235;-50
2023/06/07 04:57:26;;;;;;;9.13;4.05;;;;;;;14.08;81.11;98693.41;4100320;28;20265;-48
2023/06/07 04:59:34;;;;;;;9.98;2.95;;;;;;;14.12;80.56;98689.88;4098581;28;20206;-50
2023/06/07 05:01:36;;;;;;;16.77;3.13;;;;;;;14.17;80.93;98686.31;4104586;28;20261;-51
2023/06/07 05:03:47;;;;;;;5.18;2.88;;;;;;;14.18;80.72;98683.28;4102312;28;20697;-48
2023/06/07 05:05:55;;;;;;;5.85;3.30;;;;;;;14.23;81.03;98686.06;4090017;28;20223;-52
2023/06/07 05:07:58;;;;;;;12.95;3.00;;;;;;;14.29;81.41;98687.75;4115208;28;20211;-50
2023/06/07 05:10:00;;;;;;;3.92;2.80;;;;;;;14.33;81.53;98685.28;4103473;28;20207;-49
2023/06/07 05:12:02;;;;;;;10.38;3.42;;;;;;;14.38;81.33;98683.38;4107923;28;20240;-52
2023/06/07 05:14:04;;;;;;;16.75;3.25;;;;;;;14.44;81.42;98682.28;4103828;28;20590;-50
2023/06/07 05:16:06;;;;;;;5.57;3.05;;;;;;;14.51;80.91;98682.84;4108897;28;20221;-54
2023/06/07 05:18:09;;;;;;;4.80;2.15;;;;;;;14.57;80.52;98680.97;4110711;28;20215;-51
2023/06/07 05:20:11;;;;;;;3.47;2.20;;;;;;;14.63;80.22;98680.69;4108585;28;20221;-51
2023/06/07 05:22:14;;;;;;;3.55;2.83;;;;;;;14.75;79.74;98678.53;4120914;28;22060;-49
2023/06/07 05:24:16;;;;;;;5.03;2.70;;;;;;;14.86;79.27;98677.44;4120004;28;20581;-52
2023/06/07 05:26:19;;;;;;;5.88;2.70;;;;;;;14.83;80.35;98680.72;4124418;28;20428;-51
2023/06/07 05:28:20;;;;;;;3.33;2.53;;;;;;;14.97;79.61;98681.84;4108042;28;20206;-51
2023/06/07 05:30:22;;;;;;;3.97;2.45;;;;;;;15.13;78.57;98686.28;4108173;28;20214;-51
2023/06/07 05:32:24;;;;;;;3.13;2.85;;;;;;;15.07;78.59;98679.13;4093305;28;20215;-50
2023/06/07 05:34:26;;;;;;;3.17;2.72;;;;;;;15.29;77.70;98676.91;4107603;28;20313;-52
2023/06/07 05:36:29;;;;;;;3.88;2.40;;;;;;;15.36;78.04;98680.25;4110219;28;20210;-51
2023/06/07 05:38:31;;;;;;;3.90;2.67;;;;;;;15.32;78.28;98678.31;4083940;28;20298;-49
2023/06/07 05:40:33;;;;;;;2.45;2.20;;;;;;;15.46;78.16;98677.50;4090682;28;20293;-52
2023/06/07 05:42:38;;;;;;;2.55;2.30;;;;;;;15.85;78.53;98678.53;4122412;28;20209;-49
2023/06/07 05:44:40;;;;;;;3.78;2.50;;;;;;;16.14;77.91;98682.28;4109035;28;20230;-54
2023/06/07 05:46:43;;;;;;;3.53;3.08;;;;;;;16.33;76.55;98682.50;4109019;28;20214;-52
2023/06/07 05:48:45;;;;;;;2.83;2.63;;;;;;;16.49;76.95;98684.94;4108156;28;20238;-51
2023/06/07 05:50:47;;;;;;;5.57;2.58;;;;;;;16.51;77.14;98682.72;4106008;28;20652;-51
2023/06/07 05:52:56;;;;;;;2.55;2.35;;;;;;;16.61;76.71;98688.19;4108194;28;20215;-51
2023/06/07 05:54:58;;;;;;;2.20;1.95;;;;;;;16.72;75.13;98687.03;4108723;28;20779;-51
2023/06/07 05:57:01;;;;;;;13.88;3.30;;;;;;;16.93;75.40;98686.59;4108051;28;20207;-50
2023/06/07 05:59:03;;;;;;;4.80;2.88;;;;;;;17.00;74.01;98691.81;4103594;28;20219;-52
2023/06/07 06:01:07;;;;;;;4.05;2.30;;;;;;;17.09;72.50;98684.56;4121398;28;20220;-53
2023/06/07 06:03:09;;;;;;;2.55;2.22;;;;;;;17.30;73.40;98694.34;4102330;28;20325;-54
2023/06/07 06:05:11;;;;;;;9.63;2.35;;;;;;;17.36;71.73;98688.50;4106767;28;20230;-54
2023/06/07 06:07:15;;;;;;;2.00;1.80;;;;;;;17.66;70.79;98692.97;4120922;28;20302;-53
2023/06/07 06:09:17;;;;;;;2.10;1.90;;;;;;;17.70;71.21;98685.72;4104738;28;20571;-50
2023/06/07 06:11:19;;;;;;;2.13;1.55;;;;;;;17.87;69.76;98699.94;4102807;28;20289;-50
2023/06/07 06:13:21;;;;;;;2.35;2.15;;;;;;;17.97;68.94;98697.06;4106208;28;20274;-52
2023/06/07 06:15:24;;;;;;;2.17;1.98;;;;;;;17.71;68.03;98693.72;4108100;28;21203;-51
2023/06/07 06:17:26;;;;;;;2.85;1.70;;;;;;;17.49;68.50;98695.31;4105423;28;20258;-50
2023/06/07 06:19:29;;;;;;;2.88;1.67;;;;;;;17.72;67.29;98694.56;4103530;28;20207;-50
2023/06/07 06:21:31;;;;;;;6.88;1.90;;;;;;;17.73;66.91;98691.50;4106255;28;20211;-49
2023/06/07 06:23:33;;;;;;;3.65;2.13;;;;;;;18.10;66.38;98691.66;4095827;28;20580;-49
2023/06/07 06:25:36;;;;;;;3.40;1.73;;;;;;;18.36;65.91;98694.97;4103322;28;20257;-50
2023/06/07 06:27:38;;;;;;;2.10;1.27;;;;;;;18.51;65.48;98686.50;4105562;28;20207;-50
2023/06/07 06:29:46;;;;;;;1.83;1.63;;;;;;;18.66;64.53;98694.59;4117386;28;20210;-52
2023/06/07 06:31:47;;;;;;;1.83;1.60;;;;;;;18.64;65.60;98696.88;4106824;28;20215;-52
2023/06/07 06:33:49;;;;;;;2.65;1.67;;;;;;;18.67;65.74;98690.72;4106833;28;20645;-53
2023/06/07 06:35:53;;;;;;;1.80;1.70;;;;;;;18.87;65.84;98690.44;4107001;28;20207;-50
2023/06/07 06:37:54;;;;;;;2.03;1.70;;;;;;;18.99;64.23;98693.59;4104057;28;20199;-52
2023/06/07 06:39:56;;;;;;;2.95;1.73;;;;;;;19.26;63.88;98699.31;4106327;28;20206;-51
2023/06/07 06:41:58;;;;;;;2.42;1.52;;;;;;;19.28;63.30;98697.88;4103613;28;20214;-50
2023/06/07 06:44:06;;;;;;;3.05;2.30;;;;;;;19.29;63.63;98704.22;4106450;28;20670;-50
2023/06/07 06:46:08;;;;;;;4.13;2.10;;;;;;;19.33;63.55;98703.34;4102576;28;20273;-48
2023/06/07 06:48:10;;;;;;;2.70;1.90;;;;;;;19.54;63.20;98706.59;4098740;28;20237;-48
2023/06/07 06:50:13;;;;;;;2.22;1.60;;;;;;;19.69;63.43;98698.00;4101540;28;20211;-48
2023/06/07 06:52:33;;;;;;;2.17;1.40;;;;;;;19.85;61.71;98702.19;4101177;28;20731;-48
2023/06/07 06:54:35;;;;;;;2.33;2.00;;;;;;;19.93;62.41;98704.25;4104297;28;20224;-49
2023/06/07 06:56:37;;;;;;;2.83;2.10;;;;;;;20.13;62.01;98709.47;4104027;28;20733;-49
2023/06/07 06:58:40;;;;;;;6.65;1.65;;;;;;;20.30;62.75;98709.69;4105794;28;20225;-49
2023/06/07 07:00:43;;;;;;;4.07;1.80;;;;;;;20.62;61.33;98698.44;4103519;28;20226;-49
2023/06/07 07:02:48;;;;;;;3.80;2.03;;;;;;;20.30;59.83;98709.69;4086653;28;20215;-48
2023/06/07 07:04:50;;;;;;;3.58;1.83;;;;;;;20.17;61.37;98707.72;4105590;28;20237;-48
2023/06/07 07:06:52;;;;;;;3.97;2.05;;;;;;;20.01;60.54;98707.16;4107411;28;20214;-48
2023/06/07 07:08:53;;;;;;;2.13;1.70;;;;;;;19.93;62.81;98709.81;4104004;28;20285;-49
2023/06/07 07:10:55;;;;;;;1.83;1.65;;;;;;;20.46;61.09;98709.09;4090775;28;20210;-48
2023/06/07 07:12:57;;;;;;;2.13;1.65;;;;;;;20.66;60.15;98694.75;4107777;28;20652;-48
2023/06/07 07:14:58;;;;;;;2.13;1.80;;;;;;;20.98;59.89;98697.38;4106438;28;20206;-48
2023/06/07 07:17:00;;;;;;;4.05;1.85;;;;;;;21.12;59.49;98695.38;4104076;28;20206;-48
2023/06/07 07:19:02;;;;;;;2.63;2.42;;;;;;;20.70;58.54;98701.31;4102395;28;20214;-49
2023/06/07 07:21:04;;;;;;;4.93;1.88;;;;;;;21.00;58.37;98702.63;4103473;28;20241;-48
2023/06/07 07:23:06;;;;;;;1.70;1.60;;;;;;;21.11;58.28;98706.84;4102673;28;20210;-48
2023/06/07 07:25:09;;;;;;;1.70;1.35;;;;;;;21.53;57.99;98706.38;4105133;28;20226;-49
2023/06/07 07:27:10;;;;;;;3.60;2.72;;;;;;;21.30;58.36;98702.75;4103035;28;20325;-47
2023/06/07 07:29:12;;;;;;;2.30;1.73;;;;;;;21.58;58.49;98706.25;4104832;28;20210;-48
2023/06/07 07:31:14;;;;;;;2.58;1.60;;;;;;;21.99;57.94;98704.09;4120079;28;20214;-47
2023/06/07 07:33:16;;;;;;;7.10;1.80;;;;;;;22.20;57.65;98705.19;4118254;28;20317;-48
2023/06/07 07:35:18;;;;;;;2.28;1.30;;;;;;;22.29;57.68;98706.03;4120370;28;20623;-47
2023/06/07 07:37:20;;;;;;;2.13;1.80;;;;;;;22.45;56.98;98701.75;4105907;28;20292;-47
2023/06/07 07:39:22;;;;;;;3.97;1.83;;;;;;;22.58;56.12;98701.59;4109156;28;20218;-49
2023/06/07 07:41:24;;;;;;;2.42;2.22;;;;;;;22.54;57.33;98705.38;4117468;28;20272;-48
2023/06/07 07:43:26;;;;;;;4.25;1.80;;;;;;;22.74;55.99;98701.97;4100869;28;20635;-48
2023/06/07 07:45:33;;;;;;;2.17;1.98;;;;;;;22.79;56.46;98697.09;4103193;28;20712;-49
2023/06/07 07:47:34;;;;;;;2.10;1.90;;;;;;;23.07;55.52;98703.19;4104944;28;20211;-49
2023/06/07 07:49:36;;;;;;;1.92;1.83;;;;;;;23.06;55.61;98698.78;4090292;28;20242;-48
2023/06/07 07:51:38;;;;;;;3.08;2.00;;;;;;;23.24;55.07;98704.06;4103785;28;20912;-47
2023/06/07 07:53:42;;;;;;;2.08;1.73;;;;;;;23.03;54.84;98697.44;4106131;28;21756;-47
2023/06/07 07:55:43;;;;;;;2.55;2.35;;;;;;;23.17;55.48;98700.13;4101006;28;20217;-48
2023/06/07 07:57:46;;;;;;;1.95;1.80;;;;;;;23.43;54.82;98696.19;4104205;28;20273;-48
2023/06/07 07:59:47;;;;;;;2.95;2.05;;;;;;;23.69;53.89;98699.00;4104932;28;20206;-48
2023/06/07 08:01:49;;;;;;;2.67;1.83;;;;;;;23.60;52.98;98701.78;4106629;28;20214;-48
2023/06/07 08:03:51;;;;;;;2.28;2.05;;;;;;;23.91;53.79;98696.00;4103109;28;20889;-47
2023/06/07 08:05:54;;;;;;;3.35;1.50;;;;;;;23.98;53.64;98697.97;4103921;28;20258;-48
2023/06/07 08:07:56;;;;;;;3.17;2.15;;;;;;;24.10;53.12;98706.50;4100520;28;20268;-49
2023/06/07 08:09:57;;;;;;;1.85;1.70;;;;;;;23.76;54.34;98699.31;4087209;28;20238;-48
2023/06/07 08:11:59;;;;;;;4.55;1.88;;;;;;;24.01;53.74;98697.28;4090974;28;20214;-48
2023/06/07 08:14:01;;;;;;;2.38;2.17;;;;;;;24.13;55.01;98697.41;4099854;28;20233;-48
2023/06/07 08:16:02;;;;;;;2.22;1.50;;;;;;;24.08;53.78;98692.03;4106091;28;20776;-49
2023/06/07 08:18:04;;;;;;;2.00;1.80;;;;;;;24.41;52.72;98690.25;4101601;28;20206;-47
2023/06/07 08:20:08;;;;;;;2.95;1.73;;;;;;;24.05;56.86;98687.09;4102250;28;20218;-49
2023/06/07 08:22:10;;;;;;;3.20;1.65;;;;;;;24.09;52.46;98693.66;4105415;28;20218;-48
2023/06/07 08:24:11;;;;;;;2.72;1.52;;;;;;;24.49;53.55;98689.41;4102470;28;20262;-48
2023/06/07 08:26:14;;;;;;;2.47;2.10;;;;;;;24.06;53.36;98694.31;4104596;28;21020;-49
2023/06/07 08:28:16;;;;;;;1.63;1.52;;;;;;;24.04;51.76;98696.63;4100409;28;20217;-48
2023/06/07 08:30:18;;;;;;;2.58;2.30;;;;;;;24.02;52.38;98693.38;4088125;28;20796;-48
2023/06/07 08:32:21;;;;;;;2.42;2.08;;;;;;;24.30;52.68;98685.34;4108602;28;20202;-48
2023/06/07 08:34:28;;;;;;;2.33;1.65;;;;;;;24.72;53.08;98685.19;4104642;28;20763;-48
2023/06/07 08:36:35;;;;;;;3.45;1.98;;;;;;;24.79;52.39;98691.06;4108859;28;20281;-47
2023/06/07 08:38:41;;;;;;;2.65;2.03;;;;;;;23.98;51.65;98686.78;4106791;28;20215;-48
2023/06/07 08:40:43;;;;;;;3.30;1.95;;;;;;;23.63;52.13;98683.53;4103855;28;20209;-48
2023/06/07 08:42:45;;;;;;;2.40;2.20;;;;;;;23.81;53.37;98681.19;4106837;28;20206;-49
2023/06/07 08:44:47;;;;;;;2.03;1.88;;;;;;;24.70;52.77;98679.13;4097451;28;20234;-48
2023/06/07 08:46:50;;;;;;;2.80;2.15;;;;;;;24.93;50.91;98677.66;4089852;28;20701;-48
2023/06/07 08:48:52;;;;;;;2.33;1.88;;;;;;;25.50;50.74;98678.72;4101173;28;20211;-48
2023/06/07 08:50:55;;;;;;;4.72;2.25;;;;;;;25.74;50.08;98678.81;4103006;28;20206;-49
2023/06/07 08:52:57;;;;;;;2.40;2.20;;;;;;;24.85;50.27;98666.53;4103332;28;20579;-48
2023/06/07 08:55:03;;;;;;;13.32;1.85;;;;;;;24.01;51.96;98662.94;4103029;28;20265;-48
2023/06/07 08:57:05;;;;;;;4.15;2.13;;;;;;;23.39;52.61;98678.47;4109667;28;20245;-48
2023/06/07 08:59:08;;;;;;;3.13;2.30;;;;;;;24.24;52.35;98665.16;4093515;28;20298;-48
2023/06/07 09:01:11;;;;;;;3.55;2.35;;;;;;;24.07;50.26;98673.59;4107651;28;20241;-47
2023/06/07 09:03:13;;;;;;;3.22;2.28;;;;;;;23.46;50.10;98683.53;4124207;28;20317;-48
2023/06/07 09:05:15;;;;;;;4.30;2.65;;;;;;;23.58;51.05;98678.13;4106882;28;20317;-48
2023/06/07 09:07:17;;;;;;;5.63;2.72;;;;;;;23.95;51.78;98681.03;4106532;28;20639;-48
2023/06/07 09:09:19;;;;;;;2.65;2.45;;;;;;;24.26;50.88;98676.81;4107714;28;20692;-47
2023/06/07 09:11:20;;;;;;;3.20;2.90;;;;;;;24.63;49.81;98676.03;4106841;28;20258;-48
2023/06/07 09:13:24;;;;;;;3.03;2.72;;;;;;;24.87;50.37;98670.59;4102451;28;20736;-49
2023/06/07 09:15:27;;;;;;;2.25;2.13;;;;;;;24.24;50.05;98679.13;4098032;28;20217;-48
2023/06/07 09:17:55;;;;;;;5.57;2.55;;;;;;;24.05;50.92;98680.66;4106341;28;20249;-48
2023/06/07 09:19:57;;;;;;;12.05;2.70;;;;;;;23.30;51.55;98663.66;4123473;28;20286;-47
2023/06/07 09:21:58;;;;;;;3.22;2.70;;;;;;;22.81;52.81;98671.63;4112234;28;20659;-47
2023/06/07 09:24:00;;;;;;;5.05;3.08;;;;;;;22.98;54.13;98666.09;4105333;28;20280;-48
2023/06/07 09:26:02;;;;;;;3.75;2.22;;;;;;;22.77;53.61;98670.66;4111761;28;20606;-47
2023/06/07 09:28:15;;;;;;;3.75;2.25;;;;;;;22.25;54.84;98668.81;4108714;28;20888;-46
2023/06/07 09:30:18;;;;;;;3.40;2.65;;;;;;;22.65;54.96;98670.44;4112164;28;20293;-46
2023/06/07 09:32:21;;;;;;;4.05;2.45;;;;;;;22.92;54.49;98670.19;4111970;28;20707;-47
2023/06/07 09:34:26;;;;;;;17.73;2.63;;;;;;;23.03;54.59;98674.31;4114727;28;20895;-47
2023/06/07 09:36:28;;;;;;;3.78;2.50;;;;;;;22.55;54.73;98679.09;4114203;28;20206;-47